Time;durP1;ratioP1;P1;durP2;ratioP2;P2;SDS_P1;SDS_P2;PMS_P1;PMS_P2;Temp;Humidity;BMP_temperature;BMP_pressure;BME280_temperature;BME280_humidity;BME280_pressure;Samples;Min_cycle;Max_cycle;Signal;HPM_P1;HPM_P2
2022/03/10 00:00:11;;;;;;;11.67;5.93;;;;;;;2.75;70.61;96841.28;5045819;28;20216;-85
2022/03/10 00:02:42;;;;;;;11.30;6.20;;;;;;;2.73;71.06;96841.44;5043822;28;20205;-85
2022/03/10 00:05:11;;;;;;;9.77;5.20;;;;;;;2.79;70.93;96854.13;5041300;28;20297;-87
2022/03/10 00:07:38;;;;;;;9.97;5.47;;;;;;;2.71;70.72;96848.81;5051324;28;20216;-85
2022/03/10 00:10:08;;;;;;;10.47;4.97;;;;;;;2.66;71.02;96846.63;5043089;28;20598;-86
2022/03/10 00:12:35;;;;;;;9.47;4.93;;;;;;;2.57;71.83;96852.13;5047040;28;20258;-85
2022/03/10 00:15:05;;;;;;;7.60;4.63;;;;;;;2.55;72.00;96854.16;5049587;28;20205;-87
2022/03/10 00:17:32;;;;;;;7.80;4.80;;;;;;;2.56;72.94;96839.81;5049082;28;20212;-85
2022/03/10 00:19:59;;;;;;;8.47;4.37;;;;;;;2.59;72.78;96850.16;5039495;28;20206;-86
2022/03/10 00:22:26;;;;;;;9.70;4.80;;;;;;;2.61;72.92;96842.81;5041575;28;20259;-85
2022/03/10 00:24:53;;;;;;;7.30;4.43;;;;;;;2.56;73.12;96837.13;5052510;28;20305;-85
2022/03/10 00:27:22;;;;;;;7.90;4.00;;;;;;;2.54;73.04;96844.50;5042212;28;20310;-85
2022/03/10 00:29:49;;;;;;;8.90;3.87;;;;;;;2.50;73.59;96840.50;5044356;28;20240;-86
2022/03/10 00:32:16;;;;;;;10.80;5.50;;;;;;;2.47;73.34;96846.16;5048487;28;20297;-85
2022/03/10 00:34:43;;;;;;;7.73;4.63;;;;;;;2.41;74.21;96849.50;5044151;28;20232;-86
2022/03/10 00:37:10;;;;;;;8.93;4.90;;;;;;;2.31;74.26;96844.31;5042526;28;20213;-85
2022/03/10 00:39:37;;;;;;;7.10;4.53;;;;;;;2.31;74.46;96846.16;5044380;28;20214;-86
2022/03/10 00:42:05;;;;;;;8.03;4.60;;;;;;;2.35;74.26;96847.50;5045501;28;20203;-86
2022/03/10 00:44:34;;;;;;;8.97;4.47;;;;;;;2.28;74.71;96837.53;5046174;28;20244;-85
2022/03/10 00:47:01;;;;;;;6.53;4.10;;;;;;;2.23;74.72;96839.81;5044283;28;20209;-86
2022/03/10 00:49:28;;;;;;;8.03;4.47;;;;;;;2.27;74.25;96841.19;5036444;28;20193;-85
2022/03/10 00:51:55;;;;;;;7.13;3.77;;;;;;;2.27;73.95;96835.84;5049059;28;20329;-85
2022/03/10 00:54:22;;;;;;;6.17;4.07;;;;;;;2.27;75.14;96835.84;5048844;28;20241;-85
2022/03/10 00:56:49;;;;;;;7.83;4.60;;;;;;;2.29;74.88;96835.69;5045632;28;20232;-86
2022/03/10 00:59:16;;;;;;;7.73;4.17;;;;;;;2.33;75.36;96846.81;5048683;28;20296;-86
2022/03/10 01:01:44;;;;;;;7.37;4.13;;;;;;;2.32;75.20;96853.16;5055729;28;20217;-86
2022/03/10 01:04:11;;;;;;;5.70;3.73;;;;;;;2.24;74.83;96851.31;5046042;28;20248;-86
2022/03/10 01:06:39;;;;;;;8.63;4.00;;;;;;;2.19;75.02;96864.31;5047236;28;20205;-86
2022/03/10 01:09:06;;;;;;;6.07;4.00;;;;;;;2.08;75.78;96857.47;5041579;28;20204;-86
2022/03/10 01:11:34;;;;;;;5.73;3.23;;;;;;;2.01;76.72;96861.81;5042101;28;20309;-85
2022/03/10 01:14:01;;;;;;;6.93;3.80;;;;;;;1.96;76.90;96852.66;5059719;28;20266;-85
2022/03/10 01:16:28;;;;;;;5.87;3.40;;;;;;;2.00;77.40;96861.97;5044916;28;20233;-85
2022/03/10 01:18:56;;;;;;;8.10;3.43;;;;;;;2.00;75.70;96862.78;5048131;28;20196;-86
2022/03/10 01:21:23;;;;;;;5.80;3.47;;;;;;;1.97;76.65;96865.78;5060240;28;20210;-86
2022/03/10 01:23:50;;;;;;;5.30;3.33;;;;;;;2.00;76.90;96870.78;5040649;28;20245;-85
2022/03/10 01:26:17;;;;;;;5.87;3.23;;;;;;;2.04;76.67;96863.31;5047481;28;20357;-87
2022/03/10 01:28:44;;;;;;;5.00;3.33;;;;;;;2.09;75.77;96869.81;5039028;28;20205;-86
2022/03/10 01:31:11;;;;;;;6.03;3.50;;;;;;;2.04;75.93;96865.97;5044982;28;20263;-87
2022/03/10 01:33:38;;;;;;;6.30;4.00;;;;;;;2.03;76.51;96889.13;5053252;28;20228;-87
2022/03/10 01:36:07;;;;;;;7.13;4.43;;;;;;;1.94;76.62;96874.13;5042709;28;20270;-85
2022/03/10 01:38:39;;;;;;;7.43;4.03;;;;;;;1.92;76.52;96884.09;5046798;28;20224;-86
2022/03/10 01:41:06;;;;;;;7.23;4.23;;;;;;;1.85;76.81;96885.75;5062042;28;20198;-86
2022/03/10 01:43:33;;;;;;;6.40;3.73;;;;;;;1.81;76.99;96879.06;5043793;28;20230;-86
2022/03/10 01:46:02;;;;;;;7.83;3.70;;;;;;;1.78;77.60;96880.25;5052197;28;20209;-87
2022/03/10 01:48:29;;;;;;;7.43;3.93;;;;;;;1.71;78.18;96884.53;5039444;28;20305;-87
2022/03/10 01:50:56;;;;;;;6.10;3.57;;;;;;;1.73;77.42;96884.38;5043359;28;20281;-86
2022/03/10 01:53:24;;;;;;;6.37;3.17;;;;;;;1.61;77.75;96881.19;5044022;28;20229;-86
2022/03/10 01:55:52;;;;;;;5.47;3.67;;;;;;;1.53;77.93;96878.50;5045372;28;20213;-86
2022/03/10 01:58:19;;;;;;;5.07;3.37;;;;;;;1.47;78.39;96885.28;5054955;28;20208;-87
2022/03/10 02:00:46;;;;;;;4.67;3.30;;;;;;;1.41;78.75;96891.25;5056712;28;20270;-87
2022/03/10 02:03:13;;;;;;;6.27;3.03;;;;;;;1.35;79.56;96886.59;5042302;28;20213;-86
2022/03/10 02:05:40;;;;;;;5.17;3.00;;;;;;;1.37;78.99;96887.25;5042390;28;20204;-86
2022/03/10 02:10:53;;;;;;;5.27;3.37;;;;;;;1.48;77.67;96891.44;5050055;28;20220;-87
2022/03/10 02:13:20;;;;;;;5.13;2.90;;;;;;;1.49;77.92;96888.63;5037417;28;20230;-86
2022/03/10 02:18:32;;;;;;;3.10;2.53;;;;;;;1.48;76.63;96894.94;5046568;28;20215;-86
2022/03/10 02:20:59;;;;;;;3.53;2.27;;;;;;;1.53;76.77;96895.28;5046369;28;20206;-85
2022/03/10 02:23:28;;;;;;;4.80;2.90;;;;;;;1.55;76.88;96897.78;5041514;28;20229;-85
2022/03/10 02:25:59;;;;;;;5.50;3.40;;;;;;;1.45;77.88;96897.91;5043004;28;20206;-87
2022/03/10 02:28:27;;;;;;;6.20;3.47;;;;;;;1.37;77.92;96900.53;5039798;28;20213;-86
2022/03/10 02:30:55;;;;;;;5.50;3.57;;;;;;;1.29;78.77;96903.16;5046801;28;20216;-87
2022/03/10 02:33:22;;;;;;;4.00;2.40;;;;;;;1.31;78.46;96901.19;5036318;28;20220;-85
2022/03/10 02:35:49;;;;;;;3.67;2.60;;;;;;;1.34;78.93;96900.88;5044720;28;20564;-87
2022/03/10 02:38:17;;;;;;;3.77;2.57;;;;;;;1.36;78.81;96909.50;5046193;28;20223;-86
2022/03/10 02:40:46;;;;;;;5.73;3.00;;;;;;;1.37;78.58;96895.22;5043481;28;20300;-86
2022/03/10 02:43:13;;;;;;;3.60;2.43;;;;;;;1.41;78.64;96904.56;5043204;28;20330;-86
2022/03/10 02:45:40;;;;;;;4.93;2.73;;;;;;;1.41;78.60;96907.22;5037441;28;20216;-86
2022/03/10 02:48:07;;;;;;;5.07;3.13;;;;;;;1.40;78.59;96897.56;5037356;28;20209;-86
2022/03/10 02:50:35;;;;;;;5.97;3.30;;;;;;;1.24;78.50;96907.31;5044918;28;20211;-86
2022/03/10 02:53:02;;;;;;;5.33;3.40;;;;;;;1.17;78.51;96904.44;5052722;28;20225;-86
2022/03/10 02:55:30;;;;;;;4.70;3.10;;;;;;;1.03;78.41;96905.84;5054013;28;20199;-86
2022/03/10 02:57:58;;;;;;;3.43;2.27;;;;;;;1.03;79.66;96902.34;5045880;28;20237;-85
2022/03/10 03:00:26;;;;;;;4.77;2.90;;;;;;;1.04;78.90;96904.03;5037276;28;20206;-86
2022/03/10 03:02:53;;;;;;;4.20;2.50;;;;;;;1.09;79.16;96907.06;5040320;28;20282;-87
2022/03/10 03:05:20;;;;;;;6.73;2.57;;;;;;;1.09;78.87;96907.91;5044949;28;20257;-87
2022/03/10 03:07:48;;;;;;;5.13;2.80;;;;;;;1.00;79.57;96908.84;5048158;28;20224;-85
2022/03/10 03:10:15;;;;;;;4.50;2.20;;;;;;;1.04;79.88;96914.66;5044223;28;20222;-87
2022/03/10 03:12:47;;;;;;;4.33;2.93;;;;;;;1.07;79.44;96907.22;5042877;28;20205;-86
2022/03/10 03:15:17;;;;;;;3.50;2.47;;;;;;;1.04;78.50;96907.53;5056905;28;20299;-86
2022/03/10 03:17:44;;;;;;;3.50;2.00;;;;;;;1.07;78.57;96914.38;5048353;28;20205;-85
2022/03/10 03:20:14;;;;;;;3.07;2.07;;;;;;;1.11;78.36;96915.69;5039983;28;20209;-84
2022/03/10 03:22:41;;;;;;;6.43;2.20;;;;;;;1.16;78.33;96913.41;5049547;28;20240;-86
2022/03/10 03:25:10;;;;;;;3.20;2.00;;;;;;;1.15;76.67;96911.75;5043730;28;20201;-87
2022/03/10 03:27:37;;;;;;;3.57;2.30;;;;;;;1.13;75.11;96911.06;5036995;28;20267;-87
2022/03/10 03:30:05;;;;;;;5.53;2.30;;;;;;;1.02;75.14;96912.16;5046875;28;20197;-86
2022/03/10 03:32:35;;;;;;;5.13;2.40;;;;;;;0.92;76.87;96913.28;5047102;28;20235;-86
2022/03/10 03:35:02;;;;;;;3.13;2.00;;;;;;;0.94;76.08;96897.97;5045693;28;20221;-87
2022/03/10 03:37:29;;;;;;;3.27;1.70;;;;;;;0.94;75.33;96897.97;5043306;28;20204;-87
2022/03/10 03:39:56;;;;;;;3.87;1.80;;;;;;;0.95;74.80;96891.69;5053461;28;20252;-85
2022/03/10 03:42:23;;;;;;;3.80;2.17;;;;;;;0.99;73.59;96890.38;5052004;28;20285;-86
2022/03/10 03:44:50;;;;;;;3.30;1.90;;;;;;;1.12;72.13;96896.94;5047600;28;20227;-86
2022/03/10 03:47:17;;;;;;;2.97;1.90;;;;;;;1.16;71.80;96891.31;5060714;28;20213;-85
2022/03/10 03:49:46;;;;;;;3.50;1.70;;;;;;;1.24;71.24;96894.84;5046261;28;20238;-86
2022/03/10 03:52:13;;;;;;;3.97;1.50;;;;;;;1.26;71.00;96895.53;5053157;28;20209;-86
2022/03/10 03:54:40;;;;;;;2.20;1.70;;;;;;;1.25;70.98;96898.34;5062474;28;20217;-87
2022/03/10 03:57:07;;;;;;;3.10;1.70;;;;;;;1.25;71.09;96893.03;5043194;28;20241;-86
2022/03/10 03:59:34;;;;;;;4.20;2.23;;;;;;;1.27;70.54;96899.84;5041084;28;20209;-86
2022/03/10 04:02:01;;;;;;;3.97;1.80;;;;;;;1.38;68.37;96894.22;5041001;28;20215;-86
2022/03/10 04:04:28;;;;;;;2.67;1.70;;;;;;;1.43;67.70;96888.44;5051596;28;20217;-85
2022/03/10 04:06:56;;;;;;;2.30;1.70;;;;;;;1.46;67.72;96888.94;5044062;28;20204;-87
2022/03/10 04:09:24;;;;;;;3.27;1.50;;;;;;;1.47;68.61;96895.09;5060160;28;20215;-87
2022/03/10 04:11:51;;;;;;;2.43;1.50;;;;;;;1.43;69.40;96894.59;5042313;28;20208;-86
2022/03/10 04:14:19;;;;;;;4.70;1.93;;;;;;;1.37;68.47;96889.91;5059433;28;20320;-86
2022/03/10 04:16:46;;;;;;;2.80;1.73;;;;;;;1.29;69.85;96883.72;5049294;28;20224;-85
2022/03/10 04:19:13;;;;;;;2.47;1.60;;;;;;;1.28;70.91;96884.69;5047654;28;20242;-86
2022/03/10 04:21:41;;;;;;;2.07;1.43;;;;;;;1.26;71.16;96881.38;5042225;28;20244;-86
2022/03/10 04:24:09;;;;;;;2.93;1.97;;;;;;;1.25;71.38;96893.84;5046294;28;20253;-85
2022/03/10 04:26:36;;;;;;;2.83;1.90;;;;;;;1.22;71.21;96888.00;5041362;28;20209;-85
2022/03/10 04:29:03;;;;;;;2.67;1.90;;;;;;;1.17;70.43;96883.16;5048213;28;20213;-86
2022/03/10 04:31:30;;;;;;;2.73;1.70;;;;;;;1.11;71.85;96883.78;5041711;28;20205;-86
2022/03/10 04:33:57;;;;;;;2.27;1.60;;;;;;;1.11;72.31;96889.09;5048551;28;20269;-85
2022/03/10 04:36:24;;;;;;;2.73;1.80;;;;;;;1.05;72.66;96884.44;5044912;28;20204;-86
2022/03/10 04:38:51;;;;;;;2.80;2.00;;;;;;;1.04;72.66;96888.06;5045803;28;20217;-85
2022/03/10 04:41:20;;;;;;;4.80;1.60;;;;;;;0.91;74.08;96879.72;5039499;28;20200;-87
2022/03/10 04:43:47;;;;;;;3.30;2.00;;;;;;;0.96;74.23;96888.88;5040937;28;20236;-86
2022/03/10 04:46:14;;;;;;;2.43;1.80;;;;;;;0.93;74.32;96893.69;5041071;28;20255;-85
2022/03/10 04:48:42;;;;;;;2.97;1.80;;;;;;;0.82;74.17;96884.13;5050565;28;20209;-86
2022/03/10 04:51:09;;;;;;;2.63;1.50;;;;;;;0.83;74.30;96884.97;5057939;28;20261;-86
2022/03/10 04:53:37;;;;;;;2.70;1.80;;;;;;;0.83;74.47;96890.28;5042040;28;20230;-87
2022/03/10 04:56:04;;;;;;;3.73;1.73;;;;;;;0.86;74.71;96884.63;5050406;28;20228;-86
2022/03/10 04:58:33;;;;;;;2.70;1.97;;;;;;;0.83;75.91;96891.13;5040394;28;20216;-85
2022/03/10 05:01:00;;;;;;;2.60;1.70;;;;;;;0.78;75.89;96893.41;5050260;28;20213;-85
2022/03/10 05:03:27;;;;;;;1.93;1.50;;;;;;;0.77;75.68;96890.94;5042636;28;20238;-85
2022/03/10 05:05:55;;;;;;;2.97;1.63;;;;;;;0.73;75.84;96891.22;5054962;28;20202;-86
2022/03/10 05:08:22;;;;;;;2.07;1.50;;;;;;;0.62;77.04;96895.94;5050624;28;20292;-86
2022/03/10 05:10:49;;;;;;;3.13;1.87;;;;;;;0.56;77.63;96893.94;5044598;28;20208;-86
2022/03/10 05:13:16;;;;;;;2.47;1.60;;;;;;;0.54;77.95;96891.41;5049713;28;20204;-85
2022/03/10 05:15:44;;;;;;;7.63;1.80;;;;;;;0.46;78.03;96886.03;5062998;28;20222;-85
2022/03/10 05:18:11;;;;;;;6.80;2.20;;;;;;;0.48;79.07;96886.72;5045016;28;20230;-85
2022/03/10 05:20:38;;;;;;;4.20;2.07;;;;;;;0.43;79.76;96886.34;5048004;28;20226;-85
2022/03/10 05:23:06;;;;;;;3.33;2.03;;;;;;;0.31;79.56;96885.78;5059196;28;20217;-84
2022/03/10 05:25:35;;;;;;;3.27;2.00;;;;;;;0.26;80.40;96893.34;5041609;28;20216;-86
2022/03/10 05:28:02;;;;;;;2.77;1.70;;;;;;;0.21;80.43;96889.50;5041494;28;20205;-86
2022/03/10 05:30:29;;;;;;;3.87;1.97;;;;;;;0.18;81.31;96885.31;5045898;28;20204;-86
2022/03/10 05:32:58;;;;;;;3.80;1.80;;;;;;;0.23;80.82;96888.34;5047290;28;20209;-85
2022/03/10 05:35:27;;;;;;;2.40;1.57;;;;;;;0.30;80.80;96885.91;5063723;28;20232;-85
2022/03/10 05:37:54;;;;;;;5.13;2.20;;;;;;;0.25;80.13;96890.88;5040764;28;20214;-85
2022/03/10 05:40:22;;;;;;;3.20;2.37;;;;;;;0.22;80.73;96897.31;5045207;28;20224;-86
2022/03/10 05:42:52;;;;;;;1.87;1.60;;;;;;;0.25;81.10;96890.88;5044406;28;20245;-85
2022/03/10 05:45:20;;;;;;;5.17;2.43;;;;;;;0.26;81.28;96898.66;5057263;28;20267;-85
2022/03/10 05:47:48;;;;;;;7.33;3.00;;;;;;;0.25;82.05;96893.53;5052250;28;20220;-86
2022/03/10 05:50:16;;;;;;;3.70;2.10;;;;;;;0.29;81.48;96892.22;5046826;28;20212;-86
2022/03/10 05:52:45;;;;;;;2.53;1.73;;;;;;;0.32;80.79;96907.84;5048004;28;20260;-85
2022/03/10 05:55:13;;;;;;;2.40;1.80;;;;;;;0.33;81.18;96909.53;5049063;28;20224;-85
2022/03/10 05:57:40;;;;;;;4.47;2.27;;;;;;;0.32;80.28;96908.69;5045615;28;20203;-86
2022/03/10 06:00:10;;;;;;;2.43;2.00;;;;;;;0.34;80.55;96909.34;5043160;28;20212;-86
2022/03/10 06:02:40;;;;;;;3.73;1.63;;;;;;;0.40;79.66;96918.53;5039195;28;20210;-85
2022/03/10 06:05:08;;;;;;;3.70;2.20;;;;;;;0.42;80.02;96924.53;5046014;28;20217;-85
2022/03/10 06:07:37;;;;;;;2.97;2.13;;;;;;;0.38;79.59;96920.50;5041888;28;20290;-85
2022/03/10 06:10:05;;;;;;;4.17;2.10;;;;;;;0.28;80.72;96922.41;5047817;28;20357;-85
2022/03/10 06:12:33;;;;;;;6.90;2.30;;;;;;;0.24;80.57;96921.06;5047046;28;20209;-85
2022/03/10 06:15:01;;;;;;;4.10;2.27;;;;;;;0.22;81.29;96920.38;5043992;28;20256;-86
2022/03/10 06:17:30;;;;;;;3.13;1.77;;;;;;;0.26;81.22;96925.22;5040861;28;20237;-85
2022/03/10 06:19:57;;;;;;;3.10;2.10;;;;;;;0.20;80.29;96914.38;5043476;28;20202;-84
2022/03/10 06:22:26;;;;;;;4.50;2.60;;;;;;;0.25;80.08;96922.75;5052145;28;20217;-85
2022/03/10 06:24:54;;;;;;;37.13;17.37;;;;;;;0.25;79.31;96907.63;5050666;28;20222;-86
2022/03/10 06:27:23;;;;;;;30.40;13.73;;;;;;;0.32;79.56;96910.50;5037686;28;20267;-85
2022/03/10 06:29:50;;;;;;;11.50;6.00;;;;;;;0.37;76.81;96911.72;5042948;28;20638;-84
2022/03/10 06:32:18;;;;;;;19.80;8.67;;;;;;;0.42;77.75;96916.56;5037782;28;20214;-85
2022/03/10 06:34:46;;;;;;;6.80;2.80;;;;;;;0.37;78.62;96911.72;5059168;28;20220;-85
2022/03/10 06:37:13;;;;;;;2.57;1.93;;;;;;;0.32;78.43;96915.81;5051294;28;20255;-84
2022/03/10 06:39:41;;;;;;;4.57;2.07;;;;;;;0.29;79.81;96914.28;5050155;28;20200;-85
2022/03/10 06:42:10;;;;;;;4.90;2.67;;;;;;;0.23;81.07;96917.56;5047956;28;20202;-85
2022/03/10 06:44:37;;;;;;;4.90;2.80;;;;;;;0.21;80.74;96916.03;5048561;28;20244;-86
2022/03/10 06:47:08;;;;;;;3.77;2.50;;;;;;;0.22;81.18;96909.75;5048642;28;20233;-85
2022/03/10 06:49:35;;;;;;;4.37;2.27;;;;;;;0.25;83.42;96909.47;5049771;28;20202;-86
2022/03/10 06:52:03;;;;;;;4.53;2.53;;;;;;;0.44;84.32;96911.91;5036473;28;20207;-86
2022/03/10 06:54:30;;;;;;;5.47;2.03;;;;;;;0.61;82.73;96911.06;5046696;28;20224;-87
2022/03/10 06:56:57;;;;;;;2.67;1.80;;;;;;;0.63;81.01;96917.06;5038573;28;20214;-86
2022/03/10 06:59:25;;;;;;;3.30;2.00;;;;;;;0.58;78.36;96906.06;5043266;28;20207;-86
2022/03/10 07:01:52;;;;;;;2.57;1.87;;;;;;;0.54;78.38;96912.66;5041426;28;20211;-86
2022/03/10 07:04:19;;;;;;;2.77;1.97;;;;;;;0.49;79.47;96903.50;5046861;28;20207;-85
2022/03/10 07:06:47;;;;;;;2.50;1.80;;;;;;;0.45;79.92;96910.09;5057759;28;20203;-87
2022/03/10 07:09:14;;;;;;;4.80;2.40;;;;;;;0.46;80.43;96917.94;5045024;28;20583;-87
2022/03/10 07:11:42;;;;;;;3.90;2.50;;;;;;;0.40;81.25;96904.44;5049410;28;20224;-86
2022/03/10 07:14:09;;;;;;;9.13;2.97;;;;;;;0.34;81.28;96916.50;5044726;28;20202;-86
2022/03/10 07:16:37;;;;;;;4.80;2.83;;;;;;;0.33;82.16;96904.22;5044146;28;20207;-87
2022/03/10 07:19:08;;;;;;;13.57;3.80;;;;;;;0.36;81.78;96901.22;5051119;28;20204;-87
2022/03/10 07:21:37;;;;;;;9.50;3.90;;;;;;;0.29;82.15;96898.34;5038420;28;20218;-86
2022/03/10 07:24:06;;;;;;;7.83;3.20;;;;;;;0.30;82.34;96889.41;5044214;28;20225;-86
2022/03/10 07:26:34;;;;;;;9.47;3.37;;;;;;;0.33;82.18;96894.44;5057165;28;20202;-86
2022/03/10 07:29:01;;;;;;;10.17;4.77;;;;;;;0.34;81.12;96887.28;5045417;28;20238;-86
2022/03/10 07:31:28;;;;;;;6.67;3.70;;;;;;;0.34;82.74;96881.97;5041758;28;20218;-86
2022/03/10 07:33:57;;;;;;;10.00;4.33;;;;;;;0.33;82.90;96888.28;5044413;28;20236;-85
2022/03/10 07:36:25;;;;;;;4.73;2.90;;;;;;;0.34;82.60;96889.94;5057849;28;20231;-86
2022/03/10 07:38:52;;;;;;;7.63;3.70;;;;;;;0.37;82.59;96879.00;5031155;28;20207;-86
2022/03/10 07:41:19;;;;;;;10.50;4.33;;;;;;;0.37;83.19;96874.50;5042516;28;20221;-87
2022/03/10 07:43:47;;;;;;;9.43;3.83;;;;;;;0.40;83.27;96873.38;5046020;28;20240;-87
2022/03/10 07:46:14;;;;;;;8.13;3.93;;;;;;;0.45;83.47;96871.09;5045403;28;20207;-86
2022/03/10 07:48:41;;;;;;;5.03;3.07;;;;;;;0.44;83.34;96868.56;5041303;28;20305;-86
2022/03/10 07:51:09;;;;;;;6.40;3.73;;;;;;;0.48;83.41;96870.78;5038388;28;20209;-86
2022/03/10 07:53:36;;;;;;;18.10;6.83;;;;;;;0.47;83.20;96866.47;5037953;28;20262;-85
2022/03/10 07:56:04;;;;;;;9.00;4.23;;;;;;;0.45;83.39;96871.09;5043985;28;20248;-86
2022/03/10 07:58:31;;;;;;;7.40;4.30;;;;;;;0.41;82.78;96856.47;5046930;28;20229;-86
2022/03/10 08:00:59;;;;;;;4.67;3.20;;;;;;;0.44;82.67;96860.59;5034692;28;20210;-87
2022/03/10 08:03:26;;;;;;;7.23;3.00;;;;;;;0.47;81.44;96855.84;5039282;28;20217;-87
2022/03/10 08:05:53;;;;;;;5.60;3.10;;;;;;;0.48;81.97;96843.38;5042661;28;20263;-85
2022/03/10 08:08:22;;;;;;;8.47;4.07;;;;;;;0.53;81.84;96849.06;5044891;28;20202;-86
2022/03/10 08:10:49;;;;;;;13.47;4.80;;;;;;;0.56;82.60;96846.94;5045815;28;20208;-86
2022/03/10 08:13:17;;;;;;;9.20;4.80;;;;;;;0.54;82.14;96835.63;5046902;28;20194;-86
2022/03/10 08:15:44;;;;;;;9.53;4.20;;;;;;;0.60;83.06;96832.31;5039436;28;20244;-88
2022/03/10 08:18:11;;;;;;;8.63;4.30;;;;;;;0.65;82.06;96840.69;5042675;28;20205;-86
2022/03/10 08:20:39;;;;;;;6.43;3.97;;;;;;;0.63;81.28;96828.53;5033441;28;20207;-87
2022/03/10 08:23:06;;;;;;;4.60;3.03;;;;;;;0.72;81.65;96825.75;5040368;28;20237;-87
2022/03/10 08:25:36;;;;;;;7.00;4.30;;;;;;;0.75;81.84;96830.78;5045119;28;20200;-87
2022/03/10 08:28:04;;;;;;;8.80;4.87;;;;;;;0.78;81.99;96832.25;5046524;28;20228;-87
2022/03/10 08:30:31;;;;;;;7.53;3.70;;;;;;;0.83;81.28;96823.84;5033471;28;20207;-86
2022/03/10 08:32:59;;;;;;;5.30;2.80;;;;;;;0.84;80.34;96830.81;5037389;28;20208;-86
2022/03/10 08:35:26;;;;;;;4.83;3.37;;;;;;;0.85;80.04;96829.84;5041517;28;20210;-86
2022/03/10 08:37:53;;;;;;;4.50;2.13;;;;;;;0.94;79.50;96823.53;5057655;28;20274;-87
2022/03/10 08:40:20;;;;;;;4.27;1.53;;;;;;;1.16;76.31;96817.66;5050993;28;20208;-87
2022/03/10 08:42:50;;;;;;;4.50;2.90;;;;;;;1.27;75.08;96814.72;5046183;28;20309;-86
2022/03/10 08:45:17;;;;;;;4.70;3.57;;;;;;;1.49;72.34;96814.13;5046554;28;20210;-85
2022/03/10 08:47:45;;;;;;;6.03;3.93;;;;;;;1.77;68.71;96819.16;5046893;28;20216;-87
2022/03/10 08:50:12;;;;;;;3.10;2.30;;;;;;;1.98;67.42;96802.69;5044233;28;20216;-84
2022/03/10 08:52:40;;;;;;;5.47;2.73;;;;;;;2.22;67.94;96797.34;5055305;28;20221;-83
2022/03/10 08:55:08;;;;;;;4.23;2.90;;;;;;;2.45;67.54;96792.19;5056939;28;20271;-85
2022/03/10 08:57:36;;;;;;;2.93;2.03;;;;;;;2.73;65.10;96793.44;5042535;28;20207;-83
2022/03/10 09:00:07;;;;;;;3.43;2.00;;;;;;;3.04;61.67;96799.72;5040554;28;20217;-83
2022/03/10 09:02:35;;;;;;;4.77;2.40;;;;;;;3.25;60.30;96798.28;5042526;28;20511;-83
2022/03/10 09:05:02;;;;;;;5.10;2.33;;;;;;;3.46;60.19;96800.34;5043777;28;20217;-83
2022/03/10 09:07:29;;;;;;;3.77;2.57;;;;;;;3.68;59.77;96796.88;5040937;28;20349;-83
2022/03/10 09:09:56;;;;;;;4.17;2.13;;;;;;;3.84;58.66;96787.91;5051903;28;20208;-84
2022/03/10 09:12:23;;;;;;;5.50;2.70;;;;;;;4.03;56.95;96788.28;5041455;28;20321;-84
2022/03/10 09:14:50;;;;;;;7.03;3.00;;;;;;;4.25;55.37;96789.31;5038373;28;20214;-84
2022/03/10 09:17:19;;;;;;;4.23;2.77;;;;;;;4.50;54.49;96784.56;5054090;28;20202;-84
2022/03/10 09:19:46;;;;;;;6.30;3.50;;;;;;;4.72;53.88;96780.16;5051891;28;20206;-82
2022/03/10 09:22:14;;;;;;;6.53;3.10;;;;;;;4.97;52.04;96786.91;5042645;28;20309;-85
2022/03/10 09:24:42;;;;;;;9.20;3.50;;;;;;;5.10;52.43;96779.06;5043834;28;20226;-86
2022/03/10 09:27:12;;;;;;;7.33;3.40;;;;;;;5.40;53.16;96781.69;5036122;28;20202;-84
2022/03/10 09:29:39;;;;;;;7.10;4.20;;;;;;;5.57;53.16;96778.59;5043988;28;20210;-83
2022/03/10 09:32:07;;;;;;;6.77;3.90;;;;;;;5.77;51.58;96773.47;5039587;28;20272;-82
2022/03/10 09:34:38;;;;;;;12.00;4.13;;;;;;;5.90;51.44;96775.50;5029588;28;20207;-84
2022/03/10 09:37:06;;;;;;;5.60;3.73;;;;;;;6.08;51.98;96770.53;5041895;28;20222;-85
2022/03/10 09:39:33;;;;;;;11.40;3.90;;;;;;;6.23;50.75;96773.13;5045732;28;20202;-85
2022/03/10 09:42:05;;;;;;;7.30;3.83;;;;;;;6.37;50.35;96764.19;5043664;28;20210;-86
2022/03/10 09:44:34;;;;;;;13.23;4.43;;;;;;;6.58;50.39;96761.44;5038915;28;20234;-87
2022/03/10 09:47:03;;;;;;;10.27;3.60;;;;;;;6.82;49.34;96752.94;5041793;28;20212;-86
2022/03/10 09:49:34;;;;;;;6.40;4.00;;;;;;;6.95;49.06;96751.38;5046739;28;20202;-86
2022/03/10 09:52:04;;;;;;;7.33;3.53;;;;;;;7.09;47.52;96753.94;5052526;28;20214;-86
2022/03/10 09:54:31;;;;;;;7.50;3.47;;;;;;;7.23;47.93;96749.44;5041368;28;20199;-87
2022/03/10 09:56:58;;;;;;;5.40;3.50;;;;;;;7.39;46.54;96754.50;5050441;28;20312;-86
2022/03/10 09:59:28;;;;;;;7.43;3.60;;;;;;;7.51;48.13;96754.75;5040635;28;20210;-84
2022/03/10 10:01:56;;;;;;;7.30;3.60;;;;;;;7.62;47.45;96753.34;5039824;28;20206;-84
2022/03/10 10:04:23;;;;;;;6.77;4.10;;;;;;;7.77;49.24;96751.31;5052799;28;20274;-84
2022/03/10 10:07:06;;;;;;;7.80;4.50;;;;;;;7.92;50.59;96760.03;5037104;28;20210;-84
2022/03/10 10:09:43;;;;;;;9.57;4.53;;;;;;;8.07;51.95;96749.94;5037583;28;20444;-84
2022/03/10 10:12:12;;;;;;;10.50;4.90;;;;;;;8.20;51.75;96751.81;5026256;28;20210;-84
2022/03/10 10:14:42;;;;;;;8.10;5.03;;;;;;;8.32;50.65;96755.59;5045502;28;20202;-83
2022/03/10 10:17:10;;;;;;;8.30;4.57;;;;;;;8.45;50.06;96752.88;5031967;28;20229;-85
2022/03/10 10:19:44;;;;;;;7.10;4.43;;;;;;;8.49;49.79;96746.06;5042282;28;20217;-86
2022/03/10 10:22:14;;;;;;;7.53;5.07;;;;;;;8.75;49.92;96745.22;5053339;28;20252;-85
2022/03/10 10:24:52;;;;;;;12.07;4.77;;;;;;;8.78;49.76;96742.09;5047965;28;20234;-85
2022/03/10 10:27:21;;;;;;;8.90;5.33;;;;;;;8.94;48.72;96747.03;5044710;28;20213;-84
2022/03/10 10:29:50;;;;;;;8.70;5.30;;;;;;;9.11;48.75;96745.53;5045647;28;20416;-86
2022/03/10 10:32:35;;;;;;;8.20;4.60;;;;;;;9.03;48.25;96743.06;5042010;28;20215;-85
2022/03/10 10:35:05;;;;;;;10.17;5.37;;;;;;;9.15;48.52;96743.25;5046063;28;20539;-84
2022/03/10 10:37:38;;;;;;;9.17;5.70;;;;;;;9.35;48.37;96735.97;5061998;28;20221;-86
2022/03/10 10:40:10;;;;;;;8.70;5.40;;;;;;;9.40;47.65;96732.59;5037455;28;20214;-84
2022/03/10 10:42:40;;;;;;;9.20;4.93;;;;;;;9.65;46.71;96736.22;5034345;28;20230;-86
2022/03/10 10:45:28;;;;;;;10.57;5.67;;;;;;;9.98;45.23;96721.72;5046055;28;20206;-83
2022/03/10 10:48:00;;;;;;;8.53;5.23;;;;;;;10.19;44.31;96727.66;5045109;28;20206;-83
2022/03/10 10:50:30;;;;;;;9.17;5.33;;;;;;;10.39;43.46;96724.78;5041624;28;20206;-86
2022/03/10 10:52:59;;;;;;;8.20;5.43;;;;;;;10.45;42.00;96715.81;5047747;28;20342;-87
2022/03/10 10:55:35;;;;;;;9.57;5.40;;;;;;;10.68;42.60;96720.59;5038121;28;20209;-88
2022/03/10 10:58:07;;;;;;;8.90;5.57;;;;;;;10.76;41.13;96716.78;5043494;28;20209;-88
2022/03/10 11:00:43;;;;;;;10.10;5.20;;;;;;;10.88;40.61;96720.41;5046728;28;20325;-87
2022/03/10 11:03:23;;;;;;;7.40;4.93;;;;;;;11.08;39.79;96721.03;5044977;28;20206;-89
2022/03/10 11:05:51;;;;;;;12.87;5.83;;;;;;;11.18;38.88;96724.03;5040853;28;20198;-88
2022/03/10 11:08:20;;;;;;;9.40;5.03;;;;;;;11.40;38.12;96710.06;5034251;28;20206;-87
2022/03/10 11:10:48;;;;;;;11.80;5.73;;;;;;;11.36;38.74;96710.53;5044751;28;20301;-88
2022/03/10 11:13:16;;;;;;;8.40;5.67;;;;;;;11.33;39.41;96702.84;5048469;28;20289;-87
2022/03/10 11:15:45;;;;;;;10.80;6.73;;;;;;;11.50;39.80;96708.47;5043549;28;20222;-86
2022/03/10 11:18:13;;;;;;;9.27;6.17;;;;;;;11.59;38.77;96708.97;5037579;28;20206;-87
2022/03/10 11:20:43;;;;;;;11.97;6.43;;;;;;;11.81;38.55;96693.97;5039412;28;20209;-87
2022/03/10 11:23:20;;;;;;;9.77;6.47;;;;;;;11.93;37.53;96696.69;5040237;28;20235;-87
2022/03/10 11:25:55;;;;;;;11.93;6.20;;;;;;;12.17;38.37;96681.34;5039737;28;20229;-87
2022/03/10 11:28:27;;;;;;;10.87;6.53;;;;;;;12.17;37.79;96689.47;5045044;28;20213;-87
2022/03/10 11:30:56;;;;;;;9.17;5.43;;;;;;;12.04;35.74;96680.50;5042636;28;20315;-88
2022/03/10 11:33:31;;;;;;;8.20;6.23;;;;;;;12.12;36.13;96674.75;5038362;28;20205;-87
2022/03/10 11:35:59;;;;;;;10.90;7.17;;;;;;;12.25;36.63;96672.91;5037420;28;20237;-86
2022/03/10 11:38:49;;;;;;;10.13;6.50;;;;;;;12.36;36.85;96672.06;5042271;28;20206;-86
2022/03/10 11:41:18;;;;;;;10.17;6.33;;;;;;;12.56;35.86;96658.22;5031730;28;20237;-86
2022/03/10 11:43:58;;;;;;;10.67;6.47;;;;;;;12.60;35.59;96660.19;5042139;28;20225;-87
2022/03/10 11:46:26;;;;;;;9.93;5.70;;;;;;;12.62;35.00;96666.22;5047772;28;20217;-86
2022/03/10 11:49:08;;;;;;;10.73;6.67;;;;;;;12.61;35.73;96656.44;5033852;28;20203;-87